sensor_id;sensor_type;location;lat;lon;timestamp;temperature;humidity
75217;HTU21D;63800;51.972;5.682;2022-10-18T00:02:14;15.32;90.50
75217;HTU21D;63800;51.972;5.682;2022-10-18T00:04:40;15.36;89.83
75217;HTU21D;63800;51.972;5.682;2022-10-18T00:07:05;15.26;90.23
75217;HTU21D;63800;51.972;5.682;2022-10-18T00:09:31;15.14;92.15
75217;HTU21D;63800;51.972;5.682;2022-10-18T00:11:56;15.28;91.36
75217;HTU21D;63800;51.972;5.682;2022-10-18T00:14:21;15.46;90.75
75217;HTU21D;63800;51.972;5.682;2022-10-18T00:16:47;15.27;91.31
75217;HTU21D;63800;51.972;5.682;2022-10-18T00:19:12;15.06;92.52
75217;HTU21D;63800;51.972;5.682;2022-10-18T00:21:38;15.10;92.05
75217;HTU21D;63800;51.972;5.682;2022-10-18T00:24:04;15.10;92.38
75217;HTU21D;63800;51.972;5.682;2022-10-18T00:26:30;15.02;93.01
75217;HTU21D;63800;51.972;5.682;2022-10-18T00:29:01;14.98;92.66
75217;HTU21D;63800;51.972;5.682;2022-10-18T00:31:33;14.96;92.82
75217;HTU21D;63800;51.972;5.682;2022-10-18T00:34:01;14.89;93.13
75217;HTU21D;63800;51.972;5.682;2022-10-18T00:36:30;14.97;92.69
75217;HTU21D;63800;51.972;5.682;2022-10-18T00:38:55;15.16;91.37
75217;HTU21D;63800;51.972;5.682;2022-10-18T00:41:23;15.11;91.74
75217;HTU21D;63800;51.972;5.682;2022-10-18T00:46:37;15.06;91.66
75217;HTU21D;63800;51.972;5.682;2022-10-18T00:49:07;15.15;91.14
75217;HTU21D;63800;51.972;5.682;2022-10-18T00:51:38;15.32;90.15
75217;HTU21D;63800;51.972;5.682;2022-10-18T00:54:04;15.19;90.75
75217;HTU21D;63800;51.972;5.682;2022-10-18T00:56:31;15.11;91.02
75217;HTU21D;63800;51.972;5.682;2022-10-18T00:58:57;15.09;90.72
75217;HTU21D;63800;51.972;5.682;2022-10-18T01:01:23;15.09;90.51
75217;HTU21D;63800;51.972;5.682;2022-10-18T01:03:49;15.00;90.82
75217;HTU21D;63800;51.972;5.682;2022-10-18T01:06:15;14.87;90.64
75217;HTU21D;63800;51.972;5.682;2022-10-18T01:09:10;14.73;90.89
75217;HTU21D;63800;51.972;5.682;2022-10-18T01:15:06;14.79;91.01
75217;HTU21D;63800;51.972;5.682;2022-10-18T01:17:31;14.79;91.01
75217;HTU21D;63800;51.972;5.682;2022-10-18T01:22:36;14.77;91.04
75217;HTU21D;63800;51.972;5.682;2022-10-18T01:25:24;14.75;91.12
75217;HTU21D;63800;51.972;5.682;2022-10-18T01:27:58;14.71;90.69
75217;HTU21D;63800;51.972;5.682;2022-10-18T01:33:25;14.63;90.61
75217;HTU21D;63800;51.972;5.682;2022-10-18T01:36:14;14.63;90.92
75217;HTU21D;63800;51.972;5.682;2022-10-18T01:38:44;14.66;90.90
75217;HTU21D;63800;51.972;5.682;2022-10-18T01:41:12;14.66;91.01
75217;HTU21D;63800;51.972;5.682;2022-10-18T01:43:39;14.67;90.87
75217;HTU21D;63800;51.972;5.682;2022-10-18T01:46:06;14.70;90.59
75217;HTU21D;63800;51.972;5.682;2022-10-18T01:48:33;14.66;90.83
75217;HTU21D;63800;51.972;5.682;2022-10-18T01:51:02;14.70;90.86
75217;HTU21D;63800;51.972;5.682;2022-10-18T01:53:32;14.77;90.60
75217;HTU21D;63800;51.972;5.682;2022-10-18T01:56:09;14.69;90.94
75217;HTU21D;63800;51.972;5.682;2022-10-18T02:01:19;14.69;91.21
75217;HTU21D;63800;51.972;5.682;2022-10-18T02:03:48;14.63;91.46
75217;HTU21D;63800;51.972;5.682;2022-10-18T02:06:24;14.74;90.96
75217;HTU21D;63800;51.972;5.682;2022-10-18T02:08:59;14.60;90.60
75217;HTU21D;63800;51.972;5.682;2022-10-18T02:11:28;14.47;90.78
75217;HTU21D;63800;51.972;5.682;2022-10-18T02:13:59;14.41;91.41
75217;HTU21D;63800;51.972;5.682;2022-10-18T02:16:36;14.40;91.24
75217;HTU21D;63800;51.972;5.682;2022-10-18T02:19:29;14.37;91.11
75217;HTU21D;63800;51.972;5.682;2022-10-18T02:21:56;14.39;91.43
75217;HTU21D;63800;51.972;5.682;2022-10-18T02:24:26;14.41;91.21
75217;HTU21D;63800;51.972;5.682;2022-10-18T02:26:54;14.49;90.95
75217;HTU21D;63800;51.972;5.682;2022-10-18T02:29:19;14.47;90.98
75217;HTU21D;63800;51.972;5.682;2022-10-18T02:31:47;14.38;91.40
75217;HTU21D;63800;51.972;5.682;2022-10-18T02:34:32;14.36;91.95
75217;HTU21D;63800;51.972;5.682;2022-10-18T02:37:00;14.35;91.88
75217;HTU21D;63800;51.972;5.682;2022-10-18T02:39:34;14.41;91.15
75217;HTU21D;63800;51.972;5.682;2022-10-18T02:42:00;14.34;90.87
75217;HTU21D;63800;51.972;5.682;2022-10-18T02:44:25;14.37;90.31
75217;HTU21D;63800;51.972;5.682;2022-10-18T02:46:51;14.27;90.85
75217;HTU21D;63800;51.972;5.682;2022-10-18T02:49:17;14.27;90.89
75217;HTU21D;63800;51.972;5.682;2022-10-18T02:51:42;14.33;90.63
75217;HTU21D;63800;51.972;5.682;2022-10-18T02:54:08;14.25;90.60
75217;HTU21D;63800;51.972;5.682;2022-10-18T02:56:34;14.19;90.19
75217;HTU21D;63800;51.972;5.682;2022-10-18T02:58:59;14.17;90.59
75217;HTU21D;63800;51.972;5.682;2022-10-18T03:01:25;14.24;90.44
75217;HTU21D;63800;51.972;5.682;2022-10-18T03:03:51;14.19;90.82
75217;HTU21D;63800;51.972;5.682;2022-10-18T03:06:16;14.18;90.62
75217;HTU21D;63800;51.972;5.682;2022-10-18T03:08:41;14.09;90.75
75217;HTU21D;63800;51.972;5.682;2022-10-18T03:11:07;14.06;90.99
75217;HTU21D;63800;51.972;5.682;2022-10-18T03:13:32;14.07;91.34
75217;HTU21D;63800;51.972;5.682;2022-10-18T03:15:58;14.13;91.04
75217;HTU21D;63800;51.972;5.682;2022-10-18T03:18:24;14.03;91.66
75217;HTU21D;63800;51.972;5.682;2022-10-18T03:20:49;14.01;91.69
75217;HTU21D;63800;51.972;5.682;2022-10-18T03:23:14;14.00;91.40
75217;HTU21D;63800;51.972;5.682;2022-10-18T03:25:40;14.00;91.27
75217;HTU21D;63800;51.972;5.682;2022-10-18T03:28:05;14.00;91.43
75217;HTU21D;63800;51.972;5.682;2022-10-18T03:30:31;13.99;90.85
75217;HTU21D;63800;51.972;5.682;2022-10-18T03:32:56;14.12;90.77
75217;HTU21D;63800;51.972;5.682;2022-10-18T03:35:21;14.12;91.00
75217;HTU21D;63800;51.972;5.682;2022-10-18T03:37:47;14.12;90.67
75217;HTU21D;63800;51.972;5.682;2022-10-18T03:40:13;14.08;90.38
75217;HTU21D;63800;51.972;5.682;2022-10-18T03:42:38;14.06;90.42
75217;HTU21D;63800;51.972;5.682;2022-10-18T03:45:04;14.01;90.58
75217;HTU21D;63800;51.972;5.682;2022-10-18T03:47:30;14.05;90.48
75217;HTU21D;63800;51.972;5.682;2022-10-18T03:49:55;14.03;90.44
75217;HTU21D;63800;51.972;5.682;2022-10-18T03:52:20;14.05;90.47
75217;HTU21D;63800;51.972;5.682;2022-10-18T03:54:46;14.13;89.98
75217;HTU21D;63800;51.972;5.682;2022-10-18T03:57:11;14.09;89.80
75217;HTU21D;63800;51.972;5.682;2022-10-18T03:59:37;13.94;90.01
75217;HTU21D;63800;51.972;5.682;2022-10-18T04:02:03;13.86;90.57
75217;HTU21D;63800;51.972;5.682;2022-10-18T04:04:28;13.89;90.29
75217;HTU21D;63800;51.972;5.682;2022-10-18T04:06:54;13.80;90.54
75217;HTU21D;63800;51.972;5.682;2022-10-18T04:09:19;13.89;89.47
75217;HTU21D;63800;51.972;5.682;2022-10-18T04:11:45;13.84;89.56
75217;HTU21D;63800;51.972;5.682;2022-10-18T04:14:10;13.80;90.08
75217;HTU21D;63800;51.972;5.682;2022-10-18T04:16:36;13.92;89.06
75217;HTU21D;63800;51.972;5.682;2022-10-18T04:19:01;13.90;89.02
75217;HTU21D;63800;51.972;5.682;2022-10-18T04:21:26;14.04;88.89
75217;HTU21D;63800;51.972;5.682;2022-10-18T04:23:52;14.00;88.49
75217;HTU21D;63800;51.972;5.682;2022-10-18T04:26:17;14.00;88.25
75217;HTU21D;63800;51.972;5.682;2022-10-18T04:28:43;13.78;89.24
75217;HTU21D;63800;51.972;5.682;2022-10-18T04:31:10;13.79;88.53
75217;HTU21D;63800;51.972;5.682;2022-10-18T04:33:36;13.95;87.72
75217;HTU21D;63800;51.972;5.682;2022-10-18T04:36:01;13.92;88.67
75217;HTU21D;63800;51.972;5.682;2022-10-18T04:38:27;13.93;88.53
75217;HTU21D;63800;51.972;5.682;2022-10-18T04:40:52;13.85;88.44
75217;HTU21D;63800;51.972;5.682;2022-10-18T04:43:18;13.80;88.68
75217;HTU21D;63800;51.972;5.682;2022-10-18T04:45:44;13.82;88.58
75217;HTU21D;63800;51.972;5.682;2022-10-18T04:48:10;13.96;88.21
75217;HTU21D;63800;51.972;5.682;2022-10-18T04:50:35;14.00;88.04
75217;HTU21D;63800;51.972;5.682;2022-10-18T04:53:01;13.92;88.34
75217;HTU21D;63800;51.972;5.682;2022-10-18T04:55:26;13.86;87.36
75217;HTU21D;63800;51.972;5.682;2022-10-18T04:57:52;13.84;87.90
75217;HTU21D;63800;51.972;5.682;2022-10-18T05:00:17;13.58;89.14
75217;HTU21D;63800;51.972;5.682;2022-10-18T05:02:43;13.60;89.45
75217;HTU21D;63800;51.972;5.682;2022-10-18T05:05:08;13.61;89.26
75217;HTU21D;63800;51.972;5.682;2022-10-18T05:07:33;13.64;89.27
75217;HTU21D;63800;51.972;5.682;2022-10-18T05:09:59;13.62;88.92
75217;HTU21D;63800;51.972;5.682;2022-10-18T05:12:24;13.60;88.99
75217;HTU21D;63800;51.972;5.682;2022-10-18T05:14:49;13.63;88.42
75217;HTU21D;63800;51.972;5.682;2022-10-18T05:17:15;13.36;88.90
75217;HTU21D;63800;51.972;5.682;2022-10-18T05:19:40;13.40;89.22
75217;HTU21D;63800;51.972;5.682;2022-10-18T05:22:06;13.34;89.37
75217;HTU21D;63800;51.972;5.682;2022-10-18T05:24:32;13.53;88.80
75217;HTU21D;63800;51.972;5.682;2022-10-18T05:26:57;13.50;88.47
75217;HTU21D;63800;51.972;5.682;2022-10-18T05:29:23;13.63;88.16
75217;HTU21D;63800;51.972;5.682;2022-10-18T05:31:49;13.73;88.48
75217;HTU21D;63800;51.972;5.682;2022-10-18T05:34:15;13.75;88.59
75217;HTU21D;63800;51.972;5.682;2022-10-18T05:36:40;13.77;88.42
75217;HTU21D;63800;51.972;5.682;2022-10-18T05:39:05;13.81;88.53
75217;HTU21D;63800;51.972;5.682;2022-10-18T05:41:31;13.82;88.51
75217;HTU21D;63800;51.972;5.682;2022-10-18T05:43:57;13.45;90.14
75217;HTU21D;63800;51.972;5.682;2022-10-18T05:46:22;13.50;89.98
75217;HTU21D;63800;51.972;5.682;2022-10-18T05:48:49;13.66;89.31
75217;HTU21D;63800;51.972;5.682;2022-10-18T05:51:15;13.70;89.16
75217;HTU21D;63800;51.972;5.682;2022-10-18T05:53:40;13.74;88.64
75217;HTU21D;63800;51.972;5.682;2022-10-18T05:56:06;13.83;88.33
75217;HTU21D;63800;51.972;5.682;2022-10-18T05:58:32;13.76;87.87
75217;HTU21D;63800;51.972;5.682;2022-10-18T06:00:59;13.75;87.94
75217;HTU21D;63800;51.972;5.682;2022-10-18T06:03:25;13.69;88.03
75217;HTU21D;63800;51.972;5.682;2022-10-18T06:05:52;13.66;87.74
75217;HTU21D;63800;51.972;5.682;2022-10-18T06:08:18;13.74;87.92
75217;HTU21D;63800;51.972;5.682;2022-10-18T06:10:43;13.80;87.52
75217;HTU21D;63800;51.972;5.682;2022-10-18T06:13:09;13.77;88.08
75217;HTU21D;63800;51.972;5.682;2022-10-18T06:15:34;13.74;88.29
75217;HTU21D;63800;51.972;5.682;2022-10-18T06:18:00;13.78;88.20
75217;HTU21D;63800;51.972;5.682;2022-10-18T06:20:25;13.81;88.11
75217;HTU21D;63800;51.972;5.682;2022-10-18T06:22:51;13.81;88.22
75217;HTU21D;63800;51.972;5.682;2022-10-18T06:25:17;13.74;88.70
75217;HTU21D;63800;51.972;5.682;2022-10-18T06:27:43;13.71;88.51
75217;HTU21D;63800;51.972;5.682;2022-10-18T06:30:09;13.77;88.54
75217;HTU21D;63800;51.972;5.682;2022-10-18T06:32:34;13.73;88.74
75217;HTU21D;63800;51.972;5.682;2022-10-18T06:34:59;13.73;88.99
75217;HTU21D;63800;51.972;5.682;2022-10-18T06:37:28;13.74;88.92
75217;HTU21D;63800;51.972;5.682;2022-10-18T06:39:54;13.64;89.18
75217;HTU21D;63800;51.972;5.682;2022-10-18T06:42:19;13.54;89.76
75217;HTU21D;63800;51.972;5.682;2022-10-18T06:44:45;13.60;89.59
75217;HTU21D;63800;51.972;5.682;2022-10-18T06:47:11;13.48;90.24
75217;HTU21D;63800;51.972;5.682;2022-10-18T06:49:37;13.40;90.50
75217;HTU21D;63800;51.972;5.682;2022-10-18T06:52:02;13.52;90.34
75217;HTU21D;63800;51.972;5.682;2022-10-18T06:54:28;13.36;90.66
75217;HTU21D;63800;51.972;5.682;2022-10-18T06:56:56;13.34;90.90
75217;HTU21D;63800;51.972;5.682;2022-10-18T06:59:22;13.36;90.99
75217;HTU21D;63800;51.972;5.682;2022-10-18T07:01:48;13.45;90.69
75217;HTU21D;63800;51.972;5.682;2022-10-18T07:04:13;13.53;90.21
75217;HTU21D;63800;51.972;5.682;2022-10-18T07:06:38;13.50;90.59
75217;HTU21D;63800;51.972;5.682;2022-10-18T07:09:04;13.56;90.56
75217;HTU21D;63800;51.972;5.682;2022-10-18T07:11:29;13.64;90.13
75217;HTU21D;63800;51.972;5.682;2022-10-18T07:13:58;13.59;90.24
75217;HTU21D;63800;51.972;5.682;2022-10-18T07:16:31;13.58;90.20
75217;HTU21D;63800;51.972;5.682;2022-10-18T07:18:57;13.69;89.70
75217;HTU21D;63800;51.972;5.682;2022-10-18T07:21:24;13.67;89.93
75217;HTU21D;63800;51.972;5.682;2022-10-18T07:23:50;13.60;89.53
75217;HTU21D;63800;51.972;5.682;2022-10-18T07:28:51;13.58;90.11
75217;HTU21D;63800;51.972;5.682;2022-10-18T07:31:19;13.53;90.09
75217;HTU21D;63800;51.972;5.682;2022-10-18T07:33:44;13.44;90.37
75217;HTU21D;63800;51.972;5.682;2022-10-18T07:36:11;13.50;89.95
75217;HTU21D;63800;51.972;5.682;2022-10-18T07:38:37;13.55;89.73
75217;HTU21D;63800;51.972;5.682;2022-10-18T07:41:04;13.80;89.22
75217;HTU21D;63800;51.972;5.682;2022-10-18T07:43:31;13.68;89.15
75217;HTU21D;63800;51.972;5.682;2022-10-18T07:45:59;13.66;89.37
75217;HTU21D;63800;51.972;5.682;2022-10-18T07:48:24;13.80;88.25
75217;HTU21D;63800;51.972;5.682;2022-10-18T07:50:50;13.82;88.51
75217;HTU21D;63800;51.972;5.682;2022-10-18T07:53:16;13.67;88.83
75217;HTU21D;63800;51.972;5.682;2022-10-18T07:55:41;13.81;88.28
75217;HTU21D;63800;51.972;5.682;2022-10-18T07:58:07;13.71;88.25
75217;HTU21D;63800;51.972;5.682;2022-10-18T08:00:33;13.79;88.07
75217;HTU21D;63800;51.972;5.682;2022-10-18T08:03:00;13.78;88.12
75217;HTU21D;63800;51.972;5.682;2022-10-18T08:05:26;13.89;87.36
75217;HTU21D;63800;51.972;5.682;2022-10-18T08:07:52;13.78;87.58
75217;HTU21D;63800;51.972;5.682;2022-10-18T08:10:18;13.71;87.76
75217;HTU21D;63800;51.972;5.682;2022-10-18T08:12:44;13.64;87.95
75217;HTU21D;63800;51.972;5.682;2022-10-18T08:15:10;13.66;87.54
75217;HTU21D;63800;51.972;5.682;2022-10-18T08:17:35;13.53;88.30
75217;HTU21D;63800;51.972;5.682;2022-10-18T08:20:00;13.75;87.36
75217;HTU21D;63800;51.972;5.682;2022-10-18T08:22:26;13.77;87.49
75217;HTU21D;63800;51.972;5.682;2022-10-18T08:24:51;13.86;87.22
75217;HTU21D;63800;51.972;5.682;2022-10-18T08:27:17;13.93;87.46
75217;HTU21D;63800;51.972;5.682;2022-10-18T08:29:42;14.04;86.58
75217;HTU21D;63800;51.972;5.682;2022-10-18T08:32:08;14.15;86.16
75217;HTU21D;63800;51.972;5.682;2022-10-18T08:34:34;14.09;86.64
75217;HTU21D;63800;51.972;5.682;2022-10-18T08:37:00;14.15;86.97
75217;HTU21D;63800;51.972;5.682;2022-10-18T08:39:25;14.15;87.41
75217;HTU21D;63800;51.972;5.682;2022-10-18T08:42:34;14.38;85.85
75217;HTU21D;63800;51.972;5.682;2022-10-18T08:44:48;14.40;86.19
75217;HTU21D;63800;51.972;5.682;2022-10-18T08:47:17;14.32;87.14
75217;HTU21D;63800;51.972;5.682;2022-10-18T08:49:53;14.42;87.28
75217;HTU21D;63800;51.972;5.682;2022-10-18T08:52:49;14.40;86.39
75217;HTU21D;63800;51.972;5.682;2022-10-18T08:55:22;14.62;85.23
75217;HTU21D;63800;51.972;5.682;2022-10-18T08:57:49;14.47;85.85
75217;HTU21D;63800;51.972;5.682;2022-10-18T09:00:23;14.42;86.22
75217;HTU21D;63800;51.972;5.682;2022-10-18T09:03:12;14.57;85.48
75217;HTU21D;63800;51.972;5.682;2022-10-18T09:19:54;15.08;83.51
75217;HTU21D;63800;51.972;5.682;2022-10-18T09:22:38;14.96;83.68
75217;HTU21D;63800;51.972;5.682;2022-10-18T09:28:07;15.47;82.75
75217;HTU21D;63800;51.972;5.682;2022-10-18T09:33:43;15.44;83.04
75217;HTU21D;63800;51.972;5.682;2022-10-18T09:36:16;15.80;81.78
75217;HTU21D;63800;51.972;5.682;2022-10-18T09:38:45;15.77;81.49
75217;HTU21D;63800;51.972;5.682;2022-10-18T09:41:21;15.74;80.71
75217;HTU21D;63800;51.972;5.682;2022-10-18T09:46:42;15.97;80.33
75217;HTU21D;63800;51.972;5.682;2022-10-18T09:49:16;16.08;80.21
75217;HTU21D;63800;51.972;5.682;2022-10-18T09:51:44;16.15;79.53
75217;HTU21D;63800;51.972;5.682;2022-10-18T09:54:37;16.02;76.98
75217;HTU21D;63800;51.972;5.682;2022-10-18T09:57:15;15.95;76.06
75217;HTU21D;63800;51.972;5.682;2022-10-18T09:59:45;16.19;76.04
75217;HTU21D;63800;51.972;5.682;2022-10-18T10:02:13;16.28;76.35
75217;HTU21D;63800;51.972;5.682;2022-10-18T10:04:39;16.27;75.21
75217;HTU21D;63800;51.972;5.682;2022-10-18T10:07:08;16.64;73.89
75217;HTU21D;63800;51.972;5.682;2022-10-18T10:09:40;16.81;73.19
75217;HTU21D;63800;51.972;5.682;2022-10-18T10:12:35;16.92;72.15
75217;HTU21D;63800;51.972;5.682;2022-10-18T10:15:23;16.91;73.11
75217;HTU21D;63800;51.972;5.682;2022-10-18T10:18:16;16.96;70.90
75217;HTU21D;63800;51.972;5.682;2022-10-18T10:20:43;17.22;69.09
75217;HTU21D;63800;51.972;5.682;2022-10-18T10:23:28;17.07;71.28
75217;HTU21D;63800;51.972;5.682;2022-10-18T10:25:57;17.20;67.97
75217;HTU21D;63800;51.972;5.682;2022-10-18T10:28:29;17.15;68.24
75217;HTU21D;63800;51.972;5.682;2022-10-18T10:36:29;18.24;65.18
75217;HTU21D;63800;51.972;5.682;2022-10-18T10:39:12;18.02;65.83
75217;HTU21D;63800;51.972;5.682;2022-10-18T10:41:40;18.28;64.65
75217;HTU21D;63800;51.972;5.682;2022-10-18T10:44:15;18.29;64.51
75217;HTU21D;63800;51.972;5.682;2022-10-18T10:46:41;18.83;63.26
75217;HTU21D;63800;51.972;5.682;2022-10-18T10:49:18;18.47;61.54
75217;HTU21D;63800;51.972;5.682;2022-10-18T10:51:45;18.51;62.76
75217;HTU21D;63800;51.972;5.682;2022-10-18T10:54:12;18.89;63.34
75217;HTU21D;63800;51.972;5.682;2022-10-18T10:59:30;19.74;60.38
75217;HTU21D;63800;51.972;5.682;2022-10-18T11:04:45;20.46;55.10
75217;HTU21D;63800;51.972;5.682;2022-10-18T11:07:39;20.64;55.42
75217;HTU21D;63800;51.972;5.682;2022-10-18T11:10:23;20.73;53.73
75217;HTU21D;63800;51.972;5.682;2022-10-18T11:13:02;20.49;55.81
75217;HTU21D;63800;51.972;5.682;2022-10-18T11:15:34;20.68;56.45
75217;HTU21D;63800;51.972;5.682;2022-10-18T11:18:14;21.28;55.75
75217;HTU21D;63800;51.972;5.682;2022-10-18T11:20:52;22.72;48.86
75217;HTU21D;63800;51.972;5.682;2022-10-18T11:23:19;22.48;54.11
75217;HTU21D;63800;51.972;5.682;2022-10-18T11:31:30;25.38;41.68
75217;HTU21D;63800;51.972;5.682;2022-10-18T11:36:53;25.58;43.66
75217;HTU21D;63800;51.972;5.682;2022-10-18T11:42:21;25.09;48.21
75217;HTU21D;63800;51.972;5.682;2022-10-18T11:50:48;27.25;39.25
75217;HTU21D;63800;51.972;5.682;2022-10-18T11:56:31;27.94;37.99
75217;HTU21D;63800;51.972;5.682;2022-10-18T12:04:46;26.39;38.53
75217;HTU21D;63800;51.972;5.682;2022-10-18T12:07:15;26.52;40.96
75217;HTU21D;63800;51.972;5.682;2022-10-18T12:09:45;27.32;38.71
75217;HTU21D;63800;51.972;5.682;2022-10-18T12:12:25;28.33;34.84
75217;HTU21D;63800;51.972;5.682;2022-10-18T12:14:58;27.44;37.67
75217;HTU21D;63800;51.972;5.682;2022-10-18T12:17:46;28.08;33.00
75217;HTU21D;63800;51.972;5.682;2022-10-18T12:20:17;26.87;39.41
75217;HTU21D;63800;51.972;5.682;2022-10-18T12:22:55;27.21;37.20
75217;HTU21D;63800;51.972;5.682;2022-10-18T12:25:24;27.00;38.43
75217;HTU21D;63800;51.972;5.682;2022-10-18T12:28:02;26.56;39.22
75217;HTU21D;63800;51.972;5.682;2022-10-18T12:31:02;27.72;36.42
75217;HTU21D;63800;51.972;5.682;2022-10-18T12:33:29;28.23;34.89
75217;HTU21D;63800;51.972;5.682;2022-10-18T12:38:38;28.80;31.46
75217;HTU21D;63800;51.972;5.682;2022-10-18T12:41:05;28.63;31.06
75217;HTU21D;63800;51.972;5.682;2022-10-18T12:43:33;29.64;30.71
75217;HTU21D;63800;51.972;5.682;2022-10-18T12:46:06;30.71;28.33
75217;HTU21D;63800;51.972;5.682;2022-10-18T12:48:35;28.03;35.44
75217;HTU21D;63800;51.972;5.682;2022-10-18T12:51:04;26.98;34.90
75217;HTU21D;63800;51.972;5.682;2022-10-18T12:53:30;26.83;36.14
75217;HTU21D;63800;51.972;5.682;2022-10-18T13:09:39;28.99;30.88
75217;HTU21D;63800;51.972;5.682;2022-10-18T13:20:39;26.96;34.66
75217;HTU21D;63800;51.972;5.682;2022-10-18T13:28:46;27.78;35.49
75217;HTU21D;63800;51.972;5.682;2022-10-18T13:31:38;28.06;32.87
75217;HTU21D;63800;51.972;5.682;2022-10-18T13:37:19;27.98;33.78
75217;HTU21D;63800;51.972;5.682;2022-10-18T13:39:45;27.26;34.24
75217;HTU21D;63800;51.972;5.682;2022-10-18T13:44:41;26.77;34.47
75217;HTU21D;63800;51.972;5.682;2022-10-18T13:47:11;26.36;36.05
75217;HTU21D;63800;51.972;5.682;2022-10-18T13:55:53;25.74;37.11
75217;HTU21D;63800;51.972;5.682;2022-10-18T14:04:28;21.34;45.32
75217;HTU21D;63800;51.972;5.682;2022-10-18T14:07:00;21.52;44.93
75217;HTU21D;63800;51.972;5.682;2022-10-18T14:09:32;21.43;45.33
75217;HTU21D;63800;51.972;5.682;2022-10-18T14:12:06;21.08;46.25
75217;HTU21D;63800;51.972;5.682;2022-10-18T14:14:42;20.55;48.15
75217;HTU21D;63800;51.972;5.682;2022-10-18T14:19:46;19.67;49.25
75217;HTU21D;63800;51.972;5.682;2022-10-18T14:24:50;19.52;49.85
75217;HTU21D;63800;51.972;5.682;2022-10-18T14:27:23;19.85;50.22
75217;HTU21D;63800;51.972;5.682;2022-10-18T14:30:14;19.52;49.76
75217;HTU21D;63800;51.972;5.682;2022-10-18T14:32:46;19.16;49.10
75217;HTU21D;63800;51.972;5.682;2022-10-18T14:35:31;18.99;49.31
75217;HTU21D;63800;51.972;5.682;2022-10-18T14:38:00;19.03;49.49
75217;HTU21D;63800;51.972;5.682;2022-10-18T14:40:39;18.85;50.66
75217;HTU21D;63800;51.972;5.682;2022-10-18T14:45:33;18.73;52.25
75217;HTU21D;63800;51.972;5.682;2022-10-18T14:48:16;18.69;53.02
75217;HTU21D;63800;51.972;5.682;2022-10-18T14:50:42;18.64;53.17
75217;HTU21D;63800;51.972;5.682;2022-10-18T14:53:15;18.63;53.79
75217;HTU21D;63800;51.972;5.682;2022-10-18T14:55:42;18.64;53.52
75217;HTU21D;63800;51.972;5.682;2022-10-18T14:58:17;18.70;54.18
75217;HTU21D;63800;51.972;5.682;2022-10-18T15:00:44;18.41;53.64
75217;HTU21D;63800;51.972;5.682;2022-10-18T15:03:13;18.72;50.40
75217;HTU21D;63800;51.972;5.682;2022-10-18T15:05:57;18.52;52.14
75217;HTU21D;63800;51.972;5.682;2022-10-18T15:08:31;18.28;52.17
75217;HTU21D;63800;51.972;5.682;2022-10-18T15:10:58;18.50;53.24
75217;HTU21D;63800;51.972;5.682;2022-10-18T15:13:24;18.48;52.42
75217;HTU21D;63800;51.972;5.682;2022-10-18T15:15:51;18.61;53.33
75217;HTU21D;63800;51.972;5.682;2022-10-18T15:18:21;18.74;54.79
75217;HTU21D;63800;51.972;5.682;2022-10-18T15:21:21;18.41;55.75
75217;HTU21D;63800;51.972;5.682;2022-10-18T15:23:48;18.46;56.32
75217;HTU21D;63800;51.972;5.682;2022-10-18T15:26:20;18.66;57.59
75217;HTU21D;63800;51.972;5.682;2022-10-18T15:28:49;18.36;59.58
75217;HTU21D;63800;51.972;5.682;2022-10-18T15:31:33;18.13;58.29
75217;HTU21D;63800;51.972;5.682;2022-10-18T15:34:24;18.21;57.12
75217;HTU21D;63800;51.972;5.682;2022-10-18T15:36:52;18.15;58.54
75217;HTU21D;63800;51.972;5.682;2022-10-18T15:41:51;18.46;58.45
75217;HTU21D;63800;51.972;5.682;2022-10-18T15:44:31;18.18;60.67
75217;HTU21D;63800;51.972;5.682;2022-10-18T15:52:33;17.79;59.44
75217;HTU21D;63800;51.972;5.682;2022-10-18T15:55:00;17.95;60.16
75217;HTU21D;63800;51.972;5.682;2022-10-18T15:57:28;17.84;61.71
75217;HTU21D;63800;51.972;5.682;2022-10-18T16:00:05;17.83;62.31
75217;HTU21D;63800;51.972;5.682;2022-10-18T16:02:31;17.51;63.78
75217;HTU21D;63800;51.972;5.682;2022-10-18T16:04:58;17.24;64.82
75217;HTU21D;63800;51.972;5.682;2022-10-18T16:07:24;17.24;65.77
75217;HTU21D;63800;51.972;5.682;2022-10-18T16:09:49;17.33;66.04
75217;HTU21D;63800;51.972;5.682;2022-10-18T16:12:14;17.00;66.86
75217;HTU21D;63800;51.972;5.682;2022-10-18T16:14:40;17.01;67.14
75217;HTU21D;63800;51.972;5.682;2022-10-18T16:17:05;16.81;68.01
75217;HTU21D;63800;51.972;5.682;2022-10-18T16:19:32;16.73;68.20
75217;HTU21D;63800;51.972;5.682;2022-10-18T16:21:58;16.57;68.39
75217;HTU21D;63800;51.972;5.682;2022-10-18T16:24:24;16.31;69.80
75217;HTU21D;63800;51.972;5.682;2022-10-18T16:26:50;16.40;68.44
75217;HTU21D;63800;51.972;5.682;2022-10-18T16:29:20;16.06;69.87
75217;HTU21D;63800;51.972;5.682;2022-10-18T16:31:50;15.88;70.59
75217;HTU21D;63800;51.972;5.682;2022-10-18T16:34:17;16.04;70.19
75217;HTU21D;63800;51.972;5.682;2022-10-18T16:36:43;15.99;69.23
75217;HTU21D;63800;51.972;5.682;2022-10-18T16:39:17;15.72;70.13
75217;HTU21D;63800;51.972;5.682;2022-10-18T16:41:44;15.57;71.00
75217;HTU21D;63800;51.972;5.682;2022-10-18T16:44:10;15.49;70.90
75217;HTU21D;63800;51.972;5.682;2022-10-18T16:46:36;15.55;70.87
75217;HTU21D;63800;51.972;5.682;2022-10-18T16:49:01;15.56;70.37
75217;HTU21D;63800;51.972;5.682;2022-10-18T16:51:27;15.46;70.45
75217;HTU21D;63800;51.972;5.682;2022-10-18T16:53:53;15.26;70.90
75217;HTU21D;63800;51.972;5.682;2022-10-18T16:56:21;14.97;72.19
75217;HTU21D;63800;51.972;5.682;2022-10-18T16:58:47;14.93;72.50
75217;HTU21D;63800;51.972;5.682;2022-10-18T17:01:17;14.75;73.16
75217;HTU21D;63800;51.972;5.682;2022-10-18T17:03:43;14.73;73.18
75217;HTU21D;63800;51.972;5.682;2022-10-18T17:06:24;14.65;73.40
75217;HTU21D;63800;51.972;5.682;2022-10-18T17:08:51;14.69;73.36
75217;HTU21D;63800;51.972;5.682;2022-10-18T17:11:18;14.79;73.22
75217;HTU21D;63800;51.972;5.682;2022-10-18T17:13:44;14.74;72.83
75217;HTU21D;63800;51.972;5.682;2022-10-18T17:18:45;14.74;72.96
75217;HTU21D;63800;51.972;5.682;2022-10-18T17:21:10;14.74;73.03
75217;HTU21D;63800;51.972;5.682;2022-10-18T17:23:36;14.37;74.61
75217;HTU21D;63800;51.972;5.682;2022-10-18T17:26:01;14.06;75.53
75217;HTU21D;63800;51.972;5.682;2022-10-18T17:28:27;14.13;74.94
75217;HTU21D;63800;51.972;5.682;2022-10-18T17:30:53;14.24;74.43
75217;HTU21D;63800;51.972;5.682;2022-10-18T17:33:18;14.13;74.96
75217;HTU21D;63800;51.972;5.682;2022-10-18T17:35:43;13.85;76.29
75217;HTU21D;63800;51.972;5.682;2022-10-18T17:38:09;13.79;76.24
75217;HTU21D;63800;51.972;5.682;2022-10-18T17:40:38;13.59;77.21
75217;HTU21D;63800;51.972;5.682;2022-10-18T17:43:04;13.52;77.38
75217;HTU21D;63800;51.972;5.682;2022-10-18T17:45:29;13.69;76.66
75217;HTU21D;63800;51.972;5.682;2022-10-18T17:47:58;13.89;75.89
75217;HTU21D;63800;51.972;5.682;2022-10-18T17:50:23;13.89;75.51
75217;HTU21D;63800;51.972;5.682;2022-10-18T17:52:49;13.58;76.87